sensor_id;sensor_type;location;lat;lon;timestamp;pressure;altitude;pressure_sealevel;temperature;humidity
60918;BME280;46792;38.854;-9.384;2023-02-13T00:01:20;100394.56;;;11.46;79.60
60918;BME280;46792;38.854;-9.384;2023-02-13T00:03:21;100399.00;;;11.35;80.21
60918;BME280;46792;38.854;-9.384;2023-02-13T00:05:22;100397.88;;;11.31;80.27
60918;BME280;46792;38.854;-9.384;2023-02-13T00:07:22;100393.69;;;11.40;79.86
60918;BME280;46792;38.854;-9.384;2023-02-13T00:09:41;100386.06;;;11.37;80.15
60918;BME280;46792;38.854;-9.384;2023-02-13T00:11:42;100400.16;;;11.39;79.96
60918;BME280;46792;38.854;-9.384;2023-02-13T00:13:42;100399.09;;;11.40;80.22
60918;BME280;46792;38.854;-9.384;2023-02-13T00:15:43;100400.47;;;11.43;80.00
60918;BME280;46792;38.854;-9.384;2023-02-13T00:17:43;100408.00;;;11.40;80.14
60918;BME280;46792;38.854;-9.384;2023-02-13T00:19:44;100408.75;;;11.36;80.26
60918;BME280;46792;38.854;-9.384;2023-02-13T00:21:45;100403.59;;;11.34;80.11
60918;BME280;46792;38.854;-9.384;2023-02-13T00:23:45;100406.66;;;11.21;80.45
60918;BME280;46792;38.854;-9.384;2023-02-13T00:25:46;100407.94;;;11.18;81.10
60918;BME280;46792;38.854;-9.384;2023-02-13T00:27:46;100401.91;;;11.11;81.18
60918;BME280;46792;38.854;-9.384;2023-02-13T00:29:47;100412.13;;;11.09;81.63
60918;BME280;46792;38.854;-9.384;2023-02-13T00:31:47;100412.03;;;11.04;81.44
60918;BME280;46792;38.854;-9.384;2023-02-13T00:33:48;100400.09;;;11.00;81.51
60918;BME280;46792;38.854;-9.384;2023-02-13T00:35:49;100412.63;;;10.89;81.89
60918;BME280;46792;38.854;-9.384;2023-02-13T00:37:50;100411.63;;;10.95;82.07
60918;BME280;46792;38.854;-9.384;2023-02-13T00:39:50;100415.81;;;11.03;81.90
60918;BME280;46792;38.854;-9.384;2023-02-13T00:42:11;100410.19;;;11.04;81.51
60918;BME280;46792;38.854;-9.384;2023-02-13T00:46:49;100426.47;;;10.92;82.29
60918;BME280;46792;38.854;-9.384;2023-02-13T00:48:50;100419.31;;;10.86;82.42
60918;BME280;46792;38.854;-9.384;2023-02-13T00:50:51;100418.75;;;10.84;82.67
60918;BME280;46792;38.854;-9.384;2023-02-13T00:53:10;100418.41;;;10.80;82.61
60918;BME280;46792;38.854;-9.384;2023-02-13T00:55:11;100413.91;;;10.86;82.61
60918;BME280;46792;38.854;-9.384;2023-02-13T00:57:12;100416.56;;;10.81;82.85
60918;BME280;46792;38.854;-9.384;2023-02-13T00:59:12;100416.44;;;10.76;83.04
60918;BME280;46792;38.854;-9.384;2023-02-13T01:01:13;100417.84;;;10.78;83.04
60918;BME280;46792;38.854;-9.384;2023-02-13T01:03:15;100418.56;;;10.74;83.11
60918;BME280;46792;38.854;-9.384;2023-02-13T01:05:18;100411.63;;;10.78;82.97
60918;BME280;46792;38.854;-9.384;2023-02-13T01:07:20;100411.38;;;10.79;83.04
60918;BME280;46792;38.854;-9.384;2023-02-13T01:09:21;100415.50;;;10.82;83.02
60918;BME280;46792;38.854;-9.384;2023-02-13T01:11:21;100413.75;;;10.76;82.82
60918;BME280;46792;38.854;-9.384;2023-02-13T01:13:22;100415.34;;;10.89;83.00
60918;BME280;46792;38.854;-9.384;2023-02-13T01:15:23;100411.69;;;10.83;82.58
60918;BME280;46792;38.854;-9.384;2023-02-13T01:17:23;100407.38;;;10.82;82.63
60918;BME280;46792;38.854;-9.384;2023-02-13T01:19:24;100414.41;;;10.83;82.56
60918;BME280;46792;38.854;-9.384;2023-02-13T01:21:25;100408.66;;;10.79;82.67
60918;BME280;46792;38.854;-9.384;2023-02-13T01:23:37;100402.47;;;10.79;82.74
60918;BME280;46792;38.854;-9.384;2023-02-13T01:25:41;100412.22;;;10.80;82.63
60918;BME280;46792;38.854;-9.384;2023-02-13T01:27:42;100417.03;;;10.78;82.65
60918;BME280;46792;38.854;-9.384;2023-02-13T01:29:43;100414.06;;;10.79;82.48
60918;BME280;46792;38.854;-9.384;2023-02-13T01:31:43;100413.28;;;10.79;82.64
60918;BME280;46792;38.854;-9.384;2023-02-13T01:33:44;100406.22;;;10.78;82.72
60918;BME280;46792;38.854;-9.384;2023-02-13T01:35:46;100415.41;;;10.77;82.56
60918;BME280;46792;38.854;-9.384;2023-02-13T01:37:46;100412.44;;;10.78;82.55
60918;BME280;46792;38.854;-9.384;2023-02-13T01:39:47;100410.47;;;10.74;82.52
60918;BME280;46792;38.854;-9.384;2023-02-13T01:41:49;100424.56;;;10.76;82.36
60918;BME280;46792;38.854;-9.384;2023-02-13T01:46:49;100410.97;;;10.71;82.59
60918;BME280;46792;38.854;-9.384;2023-02-13T01:48:52;100409.41;;;10.75;82.49
60918;BME280;46792;38.854;-9.384;2023-02-13T01:50:57;100414.81;;;10.75;82.28
60918;BME280;46792;38.854;-9.384;2023-02-13T01:53:19;100405.56;;;10.71;82.59
60918;BME280;46792;38.854;-9.384;2023-02-13T01:55:23;100415.22;;;10.67;82.46
60918;BME280;46792;38.854;-9.384;2023-02-13T01:57:27;100410.53;;;10.62;82.59
60918;BME280;46792;38.854;-9.384;2023-02-13T01:59:37;100410.53;;;10.62;82.62
60918;BME280;46792;38.854;-9.384;2023-02-13T02:01:40;100414.06;;;10.62;82.72
60918;BME280;46792;38.854;-9.384;2023-02-13T02:05:50;100413.00;;;10.63;83.01
60918;BME280;46792;38.854;-9.384;2023-02-13T02:07:52;100420.41;;;10.56;83.06
60918;BME280;46792;38.854;-9.384;2023-02-13T02:09:59;100410.59;;;10.50;83.20
60918;BME280;46792;38.854;-9.384;2023-02-13T02:12:09;100409.44;;;10.46;83.42
60918;BME280;46792;38.854;-9.384;2023-02-13T02:14:30;100417.41;;;10.53;83.15
60918;BME280;46792;38.854;-9.384;2023-02-13T02:16:31;100419.03;;;10.54;83.17
60918;BME280;46792;38.854;-9.384;2023-02-13T02:18:32;100419.06;;;10.42;83.34
60918;BME280;46792;38.854;-9.384;2023-02-13T02:21:09;100426.44;;;10.46;83.72
60918;BME280;46792;38.854;-9.384;2023-02-13T02:33:15;100425.19;;;10.37;84.10
60918;BME280;46792;38.854;-9.384;2023-02-13T02:44:44;100416.53;;;10.23;84.72
60918;BME280;46792;38.854;-9.384;2023-02-13T02:47:02;100417.69;;;10.27;84.73
60918;BME280;46792;38.854;-9.384;2023-02-13T02:49:37;100419.00;;;10.25;84.63
60918;BME280;46792;38.854;-9.384;2023-02-13T02:52:19;100415.94;;;10.21;84.75
60918;BME280;46792;38.854;-9.384;2023-02-13T02:54:29;100414.75;;;10.29;84.72
60918;BME280;46792;38.854;-9.384;2023-02-13T02:56:51;100400.44;;;10.28;84.63
60918;BME280;46792;38.854;-9.384;2023-02-13T02:59:04;100404.78;;;10.29;84.45
60918;BME280;46792;38.854;-9.384;2023-02-13T03:01:26;100401.50;;;10.27;84.34
60918;BME280;46792;38.854;-9.384;2023-02-13T03:03:46;100401.41;;;10.22;84.16
60918;BME280;46792;38.854;-9.384;2023-02-13T03:06:52;100399.88;;;10.26;84.38
60918;BME280;46792;38.854;-9.384;2023-02-13T03:09:17;100397.97;;;10.27;84.44
60918;BME280;46792;38.854;-9.384;2023-02-13T03:11:38;100396.28;;;10.38;84.31
60918;BME280;46792;38.854;-9.384;2023-02-13T03:13:58;100396.09;;;10.27;84.47
60918;BME280;46792;38.854;-9.384;2023-02-13T03:16:01;100398.81;;;10.27;84.66
60918;BME280;46792;38.854;-9.384;2023-02-13T03:18:20;100393.00;;;10.35;84.36
60918;BME280;46792;38.854;-9.384;2023-02-13T03:21:07;100395.53;;;10.25;84.53
60918;BME280;46792;38.854;-9.384;2023-02-13T03:23:52;100395.16;;;10.33;84.59
60918;BME280;46792;38.854;-9.384;2023-02-13T03:41:18;100399.59;;;10.40;85.11
60918;BME280;46792;38.854;-9.384;2023-02-13T03:43:21;100396.22;;;10.32;85.45
60918;BME280;46792;38.854;-9.384;2023-02-13T03:45:35;100397.50;;;10.30;85.60
60918;BME280;46792;38.854;-9.384;2023-02-13T03:48:04;100402.22;;;10.23;85.80
60918;BME280;46792;38.854;-9.384;2023-02-13T03:50:28;100403.94;;;10.29;85.53
60918;BME280;46792;38.854;-9.384;2023-02-13T03:52:34;100394.22;;;10.28;85.63
60918;BME280;46792;38.854;-9.384;2023-02-13T03:57:45;100400.16;;;10.13;86.39
60918;BME280;46792;38.854;-9.384;2023-02-13T04:00:11;100398.75;;;10.10;86.50
60918;BME280;46792;38.854;-9.384;2023-02-13T04:02:19;100396.16;;;10.15;86.60
60918;BME280;46792;38.854;-9.384;2023-02-13T04:06:37;100398.97;;;10.09;86.86
60918;BME280;46792;38.854;-9.384;2023-02-13T04:08:58;100407.06;;;10.09;86.94
60918;BME280;46792;38.854;-9.384;2023-02-13T04:11:34;100397.47;;;10.01;87.32
60918;BME280;46792;38.854;-9.384;2023-02-13T04:14:00;100398.53;;;10.00;87.38
60918;BME280;46792;38.854;-9.384;2023-02-13T04:16:18;100399.97;;;10.02;87.20
60918;BME280;46792;38.854;-9.384;2023-02-13T04:18:26;100401.56;;;10.03;87.67
60918;BME280;46792;38.854;-9.384;2023-02-13T04:20:30;100399.38;;;10.00;87.67
60918;BME280;46792;38.854;-9.384;2023-02-13T04:22:31;100398.53;;;10.00;88.23
60918;BME280;46792;38.854;-9.384;2023-02-13T04:24:32;100393.41;;;9.98;88.04
60918;BME280;46792;38.854;-9.384;2023-02-13T04:26:44;100406.41;;;10.01;88.45
60918;BME280;46792;38.854;-9.384;2023-02-13T04:28:45;100403.22;;;10.04;88.29
60918;BME280;46792;38.854;-9.384;2023-02-13T04:30:46;100407.81;;;10.04;88.68
60918;BME280;46792;38.854;-9.384;2023-02-13T04:32:47;100415.91;;;10.04;88.69
60918;BME280;46792;38.854;-9.384;2023-02-13T04:34:48;100407.47;;;10.00;89.23
60918;BME280;46792;38.854;-9.384;2023-02-13T04:37:07;100412.38;;;10.03;89.30
60918;BME280;46792;38.854;-9.384;2023-02-13T04:39:08;100403.81;;;9.95;89.70
60918;BME280;46792;38.854;-9.384;2023-02-13T04:41:10;100402.75;;;9.96;90.46
60918;BME280;46792;38.854;-9.384;2023-02-13T04:43:11;100398.06;;;10.03;90.35
60918;BME280;46792;38.854;-9.384;2023-02-13T04:45:11;100401.25;;;10.00;91.08
60918;BME280;46792;38.854;-9.384;2023-02-13T04:47:12;100403.72;;;10.01;90.57
60918;BME280;46792;38.854;-9.384;2023-02-13T04:49:12;100390.13;;;9.96;91.07
60918;BME280;46792;38.854;-9.384;2023-02-13T04:51:13;100399.13;;;10.02;91.48
60918;BME280;46792;38.854;-9.384;2023-02-13T04:53:14;100404.84;;;10.05;91.82
60918;BME280;46792;38.854;-9.384;2023-02-13T04:55:33;100402.53;;;10.09;91.54
60918;BME280;46792;38.854;-9.384;2023-02-13T04:57:33;100403.78;;;10.07;92.34
60918;BME280;46792;38.854;-9.384;2023-02-13T04:59:34;100397.56;;;10.18;92.26
60918;BME280;46792;38.854;-9.384;2023-02-13T05:01:38;100401.22;;;10.12;92.66
60918;BME280;46792;38.854;-9.384;2023-02-13T05:03:42;100410.47;;;10.16;93.20
60918;BME280;46792;38.854;-9.384;2023-02-13T05:05:43;100401.69;;;10.09;94.08
60918;BME280;46792;38.854;-9.384;2023-02-13T05:07:44;100407.56;;;10.05;94.44
60918;BME280;46792;38.854;-9.384;2023-02-13T05:09:44;100403.91;;;10.12;94.36
60918;BME280;46792;38.854;-9.384;2023-02-13T05:11:45;100404.06;;;10.05;94.79
60918;BME280;46792;38.854;-9.384;2023-02-13T05:20:04;100406.28;;;9.96;95.83
60918;BME280;46792;38.854;-9.384;2023-02-13T05:22:05;100414.50;;;10.01;96.34
60918;BME280;46792;38.854;-9.384;2023-02-13T05:24:24;100412.88;;;10.00;96.61
60918;BME280;46792;38.854;-9.384;2023-02-13T05:26:25;100410.63;;;9.97;96.85
60918;BME280;46792;38.854;-9.384;2023-02-13T05:28:26;100416.63;;;9.99;97.13
60918;BME280;46792;38.854;-9.384;2023-02-13T05:30:45;100411.81;;;10.01;97.07
60918;BME280;46792;38.854;-9.384;2023-02-13T05:32:49;100417.53;;;10.05;96.91
60918;BME280;46792;38.854;-9.384;2023-02-13T05:34:57;100408.75;;;9.98;97.88
60918;BME280;46792;38.854;-9.384;2023-02-13T05:36:58;100413.19;;;10.04;97.82
60918;BME280;46792;38.854;-9.384;2023-02-13T05:38:59;100418.94;;;10.08;97.92
60918;BME280;46792;38.854;-9.384;2023-02-13T05:41:01;100411.56;;;10.03;98.44
60918;BME280;46792;38.854;-9.384;2023-02-13T05:43:39;100418.94;;;10.08;98.46
60918;BME280;46792;38.854;-9.384;2023-02-13T05:45:39;100417.66;;;10.10;98.93
60918;BME280;46792;38.854;-9.384;2023-02-13T05:47:40;100414.25;;;10.03;99.06
60918;BME280;46792;38.854;-9.384;2023-02-13T05:49:59;100420.22;;;10.05;99.34
60918;BME280;46792;38.854;-9.384;2023-02-13T05:52:18;100422.69;;;10.07;99.54
60918;BME280;46792;38.854;-9.384;2023-02-13T05:54:19;100423.84;;;10.11;99.94
60918;BME280;46792;38.854;-9.384;2023-02-13T05:56:19;100416.81;;;10.10;100.00
60918;BME280;46792;38.854;-9.384;2023-02-13T05:58:20;100416.44;;;10.18;100.00
60918;BME280;46792;38.854;-9.384;2023-02-13T06:03:17;100423.13;;;10.15;100.00
60918;BME280;46792;38.854;-9.384;2023-02-13T06:05:18;100421.34;;;10.21;100.00
60918;BME280;46792;38.854;-9.384;2023-02-13T06:07:18;100422.97;;;10.22;100.00
60918;BME280;46792;38.854;-9.384;2023-02-13T06:09:19;100415.59;;;10.29;100.00
60918;BME280;46792;38.854;-9.384;2023-02-13T06:11:19;100420.06;;;10.24;100.00
60918;BME280;46792;38.854;-9.384;2023-02-13T06:13:20;100430.34;;;10.39;100.00
60918;BME280;46792;38.854;-9.384;2023-02-13T06:15:21;100432.72;;;10.23;100.00
60918;BME280;46792;38.854;-9.384;2023-02-13T06:17:21;100425.41;;;10.35;100.00
60918;BME280;46792;38.854;-9.384;2023-02-13T06:19:22;100426.22;;;10.36;100.00
60918;BME280;46792;38.854;-9.384;2023-02-13T06:21:23;100431.78;;;10.29;100.00
60918;BME280;46792;38.854;-9.384;2023-02-13T06:23:42;100437.31;;;10.23;100.00
60918;BME280;46792;38.854;-9.384;2023-02-13T06:25:42;100428.38;;;10.22;100.00
60918;BME280;46792;38.854;-9.384;2023-02-13T06:27:43;100428.38;;;10.22;100.00
60918;BME280;46792;38.854;-9.384;2023-02-13T06:29:44;100440.94;;;10.28;100.00
60918;BME280;46792;38.854;-9.384;2023-02-13T06:32:03;100438.13;;;10.23;100.00
60918;BME280;46792;38.854;-9.384;2023-02-13T06:34:04;100439.75;;;10.24;100.00
60918;BME280;46792;38.854;-9.384;2023-02-13T06:36:06;100440.22;;;10.21;99.94
60918;BME280;46792;38.854;-9.384;2023-02-13T06:38:08;100447.38;;;10.27;99.83
60918;BME280;46792;38.854;-9.384;2023-02-13T06:40:10;100445.75;;;10.26;99.37
60918;BME280;46792;38.854;-9.384;2023-02-13T06:42:10;100444.22;;;10.30;98.95
60918;BME280;46792;38.854;-9.384;2023-02-13T06:44:11;100441.06;;;10.22;99.18
60918;BME280;46792;38.854;-9.384;2023-02-13T06:46:11;100446.81;;;10.25;99.14
60918;BME280;46792;38.854;-9.384;2023-02-13T06:48:13;100451.88;;;10.22;99.42
60918;BME280;46792;38.854;-9.384;2023-02-13T06:50:15;100445.63;;;10.21;99.54
60918;BME280;46792;38.854;-9.384;2023-02-13T06:52:16;100444.94;;;10.26;98.86
60918;BME280;46792;38.854;-9.384;2023-02-13T06:54:16;100454.91;;;10.25;98.51
60918;BME280;46792;38.854;-9.384;2023-02-13T06:56:17;100454.66;;;10.27;97.83
60918;BME280;46792;38.854;-9.384;2023-02-13T06:58:36;100453.38;;;10.29;97.36
60918;BME280;46792;38.854;-9.384;2023-02-13T07:00:39;100454.03;;;10.37;96.95
60918;BME280;46792;38.854;-9.384;2023-02-13T07:02:43;100452.38;;;10.35;95.83
60918;BME280;46792;38.854;-9.384;2023-02-13T07:05:03;100452.78;;;10.27;96.09
60918;BME280;46792;38.854;-9.384;2023-02-13T07:07:04;100458.97;;;10.28;95.70
60918;BME280;46792;38.854;-9.384;2023-02-13T07:09:05;100462.03;;;10.31;94.97
60918;BME280;46792;38.854;-9.384;2023-02-13T07:11:05;100461.22;;;10.31;95.38
60918;BME280;46792;38.854;-9.384;2023-02-13T07:13:07;100466.28;;;10.27;95.23
60918;BME280;46792;38.854;-9.384;2023-02-13T07:15:08;100461.00;;;10.32;94.50
60918;BME280;46792;38.854;-9.384;2023-02-13T07:17:08;100468.03;;;10.33;93.92
60918;BME280;46792;38.854;-9.384;2023-02-13T07:19:10;100463.31;;;10.29;93.98
60918;BME280;46792;38.854;-9.384;2023-02-13T07:21:11;100458.38;;;10.49;91.91
60918;BME280;46792;38.854;-9.384;2023-02-13T07:23:12;100458.97;;;10.40;91.68
60918;BME280;46792;38.854;-9.384;2023-02-13T07:25:12;100462.13;;;10.37;91.66
60918;BME280;46792;38.854;-9.384;2023-02-13T07:27:31;100453.25;;;10.24;91.54
60918;BME280;46792;38.854;-9.384;2023-02-13T07:29:51;100465.22;;;10.28;91.20
60918;BME280;46792;38.854;-9.384;2023-02-13T07:31:51;100477.41;;;10.31;90.81
60918;BME280;46792;38.854;-9.384;2023-02-13T07:33:52;100469.09;;;10.20;90.85
60918;BME280;46792;38.854;-9.384;2023-02-13T07:35:52;100463.56;;;10.27;90.04
60918;BME280;46792;38.854;-9.384;2023-02-13T07:37:53;100468.03;;;10.33;89.37
60918;BME280;46792;38.854;-9.384;2023-02-13T07:39:54;100473.66;;;10.20;89.96
60918;BME280;46792;38.854;-9.384;2023-02-13T07:41:55;100475.25;;;10.04;90.42
60918;BME280;46792;38.854;-9.384;2023-02-13T07:43:59;100485.44;;;10.02;91.07
60918;BME280;46792;38.854;-9.384;2023-02-13T07:48:38;100488.00;;;10.09;90.13
60918;BME280;46792;38.854;-9.384;2023-02-13T07:50:38;100481.69;;;10.03;90.10
60918;BME280;46792;38.854;-9.384;2023-02-13T07:52:39;100487.22;;;9.96;90.24
60918;BME280;46792;38.854;-9.384;2023-02-13T07:54:40;100478.53;;;9.94;90.22
60918;BME280;46792;38.854;-9.384;2023-02-13T07:56:47;100491.91;;;10.01;90.45
60918;BME280;46792;38.854;-9.384;2023-02-13T07:58:47;100491.78;;;9.96;90.37
60918;BME280;46792;38.854;-9.384;2023-02-13T08:00:48;100493.78;;;10.00;90.56
60918;BME280;46792;38.854;-9.384;2023-02-13T08:02:48;100496.47;;;10.00;90.75
60918;BME280;46792;38.854;-9.384;2023-02-13T08:04:49;100496.56;;;10.05;90.56
60918;BME280;46792;38.854;-9.384;2023-02-13T08:06:50;100503.16;;;10.10;90.47
60918;BME280;46792;38.854;-9.384;2023-02-13T08:08:50;100499.84;;;10.08;90.09
60918;BME280;46792;38.854;-9.384;2023-02-13T08:11:28;100509.47;;;10.03;90.22
60918;BME280;46792;38.854;-9.384;2023-02-13T08:13:49;100508.53;;;10.10;90.15
60918;BME280;46792;38.854;-9.384;2023-02-13T08:15:50;100509.38;;;10.10;89.96
60918;BME280;46792;38.854;-9.384;2023-02-13T08:17:50;100508.28;;;10.11;88.99
60918;BME280;46792;38.854;-9.384;2023-02-13T08:19:51;100503.25;;;10.15;88.70
60918;BME280;46792;38.854;-9.384;2023-02-13T08:21:52;100509.47;;;10.15;88.84
60918;BME280;46792;38.854;-9.384;2023-02-13T08:23:52;100510.19;;;10.11;88.81
60918;BME280;46792;38.854;-9.384;2023-02-13T08:25:53;100509.94;;;10.12;88.88
60918;BME280;46792;38.854;-9.384;2023-02-13T08:27:54;100512.06;;;10.10;88.39
60918;BME280;46792;38.854;-9.384;2023-02-13T08:29:56;100521.91;;;10.16;88.07
60918;BME280;46792;38.854;-9.384;2023-02-13T08:31:56;100509.81;;;10.19;87.53
60918;BME280;46792;38.854;-9.384;2023-02-13T08:33:58;100510.84;;;10.30;86.53
60918;BME280;46792;38.854;-9.384;2023-02-13T08:36:02;100522.22;;;10.32;86.35
60918;BME280;46792;38.854;-9.384;2023-02-13T08:38:03;100514.84;;;10.27;86.07
60918;BME280;46792;38.854;-9.384;2023-02-13T08:40:04;100510.97;;;10.35;85.49
60918;BME280;46792;38.854;-9.384;2023-02-13T08:42:05;100505.19;;;10.43;84.36
60918;BME280;46792;38.854;-9.384;2023-02-13T08:44:06;100504.66;;;10.41;84.12
60918;BME280;46792;38.854;-9.384;2023-02-13T08:46:06;100517.41;;;10.58;82.91
60918;BME280;46792;38.854;-9.384;2023-02-13T08:48:07;100504.50;;;10.48;83.14
60918;BME280;46792;38.854;-9.384;2023-02-13T08:50:08;100509.06;;;10.47;83.28
60918;BME280;46792;38.854;-9.384;2023-02-13T08:52:09;100516.22;;;10.54;82.89
60918;BME280;46792;38.854;-9.384;2023-02-13T08:54:09;100512.22;;;10.56;83.03
60918;BME280;46792;38.854;-9.384;2023-02-13T08:56:10;100514.69;;;10.58;82.93
60918;BME280;46792;38.854;-9.384;2023-02-13T08:58:10;100520.28;;;10.68;82.52
60918;BME280;46792;38.854;-9.384;2023-02-13T09:00:12;100524.84;;;10.68;82.09
60918;BME280;46792;38.854;-9.384;2023-02-13T09:02:13;100501.88;;;10.53;81.60
60918;BME280;46792;38.854;-9.384;2023-02-13T09:04:14;100526.88;;;10.60;81.87
60918;BME280;46792;38.854;-9.384;2023-02-13T09:06:15;100531.41;;;10.72;81.44
60918;BME280;46792;38.854;-9.384;2023-02-13T09:08:15;100535.44;;;10.69;81.45
60918;BME280;46792;38.854;-9.384;2023-02-13T09:10:17;100541.75;;;10.75;80.84
60918;BME280;46792;38.854;-9.384;2023-02-13T09:12:17;100549.44;;;10.83;79.52
60918;BME280;46792;38.854;-9.384;2023-02-13T09:14:18;100553.09;;;10.89;79.03
60918;BME280;46792;38.854;-9.384;2023-02-13T09:16:19;100560.97;;;10.78;79.39
60918;BME280;46792;38.854;-9.384;2023-02-13T09:18:20;100559.13;;;10.79;79.49
60918;BME280;46792;38.854;-9.384;2023-02-13T09:20:21;100564.28;;;10.80;79.41
60918;BME280;46792;38.854;-9.384;2023-02-13T09:22:22;100556.84;;;10.88;78.37
60918;BME280;46792;38.854;-9.384;2023-02-13T09:24:22;100567.25;;;10.96;78.10
60918;BME280;46792;38.854;-9.384;2023-02-13T09:26:23;100559.50;;;11.00;77.74
60918;BME280;46792;38.854;-9.384;2023-02-13T09:28:24;100565.97;;;10.99;77.98
60918;BME280;46792;38.854;-9.384;2023-02-13T09:30:24;100556.56;;;11.01;78.11
60918;BME280;46792;38.854;-9.384;2023-02-13T09:32:26;100575.06;;;11.09;76.91
60918;BME280;46792;38.854;-9.384;2023-02-13T09:34:26;100571.31;;;11.10;77.47
60918;BME280;46792;38.854;-9.384;2023-02-13T09:36:27;100570.97;;;11.07;77.54
60918;BME280;46792;38.854;-9.384;2023-02-13T09:38:28;100562.72;;;11.14;77.61
60918;BME280;46792;38.854;-9.384;2023-02-13T09:40:35;100574.44;;;11.19;76.36
60918;BME280;46792;38.854;-9.384;2023-02-13T09:42:38;100571.09;;;11.29;75.78
60918;BME280;46792;38.854;-9.384;2023-02-13T09:44:41;100565.53;;;11.36;75.39
60918;BME280;46792;38.854;-9.384;2023-02-13T09:46:43;100570.47;;;11.39;75.50
60918;BME280;46792;38.854;-9.384;2023-02-13T09:48:46;100566.13;;;11.38;75.12
60918;BME280;46792;38.854;-9.384;2023-02-13T09:50:49;100570.47;;;11.39;75.19
60918;BME280;46792;38.854;-9.384;2023-02-13T09:52:52;100567.59;;;11.46;75.32
60918;BME280;46792;38.854;-9.384;2023-02-13T09:58:38;100575.50;;;11.64;74.63
60918;BME280;46792;38.854;-9.384;2023-02-13T10:00:42;100574.34;;;11.77;74.74
60918;BME280;46792;38.854;-9.384;2023-02-13T10:05:05;100574.50;;;11.87;74.30
60918;BME280;46792;38.854;-9.384;2023-02-13T10:15:15;100577.31;;;12.32;74.97
60918;BME280;46792;38.854;-9.384;2023-02-13T10:17:25;100569.34;;;12.42;74.29
60918;BME280;46792;38.854;-9.384;2023-02-13T10:21:33;100574.81;;;12.70;72.07
60918;BME280;46792;38.854;-9.384;2023-02-13T10:23:49;100573.63;;;12.60;72.71
60918;BME280;46792;38.854;-9.384;2023-02-13T10:25:59;100578.94;;;12.72;73.42
60918;BME280;46792;38.854;-9.384;2023-02-13T10:28:06;100582.13;;;12.91;73.29
60918;BME280;46792;38.854;-9.384;2023-02-13T10:32:49;100587.31;;;13.20;71.39
60918;BME280;46792;38.854;-9.384;2023-02-13T10:34:52;100571.59;;;13.22;71.38
60918;BME280;46792;38.854;-9.384;2023-02-13T10:36:54;100582.59;;;13.38;71.14
60918;BME280;46792;38.854;-9.384;2023-02-13T10:46:33;100576.88;;;13.34;70.75
60918;BME280;46792;38.854;-9.384;2023-02-13T10:51:27;100568.22;;;13.37;69.57
60918;BME280;46792;38.854;-9.384;2023-02-13T10:56:26;100571.31;;;13.19;69.03
60918;BME280;46792;38.854;-9.384;2023-02-13T11:01:24;100575.69;;;13.25;68.77
60918;BME280;46792;38.854;-9.384;2023-02-13T11:03:30;100570.88;;;13.32;67.09
60918;BME280;46792;38.854;-9.384;2023-02-13T11:05:35;100574.09;;;13.29;68.04
60918;BME280;46792;38.854;-9.384;2023-02-13T11:07:36;100575.69;;;13.25;68.42
60918;BME280;46792;38.854;-9.384;2023-02-13T11:09:39;100579.47;;;13.24;68.71
60918;BME280;46792;38.854;-9.384;2023-02-13T11:11:41;100580.25;;;13.19;68.87
60918;BME280;46792;38.854;-9.384;2023-02-13T11:13:43;100586.94;;;13.12;68.56
60918;BME280;46792;38.854;-9.384;2023-02-13T11:16:05;100590.84;;;13.21;67.82
60918;BME280;46792;38.854;-9.384;2023-02-13T11:18:18;100585.28;;;13.05;68.29
60918;BME280;46792;38.854;-9.384;2023-02-13T11:20:33;100581.34;;;12.96;69.28
60918;BME280;46792;38.854;-9.384;2023-02-13T11:22:37;100582.66;;;13.16;69.58
60918;BME280;46792;38.854;-9.384;2023-02-13T11:24:55;100575.94;;;13.23;68.53
60918;BME280;46792;38.854;-9.384;2023-02-13T11:27:03;100569.66;;;13.18;68.08
60918;BME280;46792;38.854;-9.384;2023-02-13T11:29:19;100576.22;;;13.22;68.74
60918;BME280;46792;38.854;-9.384;2023-02-13T11:31:27;100566.25;;;13.55;67.92
60918;BME280;46792;38.854;-9.384;2023-02-13T11:33:29;100572.41;;;13.50;68.09
60918;BME280;46792;38.854;-9.384;2023-02-13T11:35:34;100569.31;;;13.69;67.07
60918;BME280;46792;38.854;-9.384;2023-02-13T11:37:35;100564.19;;;13.73;66.67
60918;BME280;46792;38.854;-9.384;2023-02-13T11:39:36;100573.50;;;13.82;66.10
60918;BME280;46792;38.854;-9.384;2023-02-13T11:41:42;100561.81;;;13.81;65.57
60918;BME280;46792;38.854;-9.384;2023-02-13T11:43:53;100568.41;;;13.96;65.86
60918;BME280;46792;38.854;-9.384;2023-02-13T11:46:19;100569.63;;;14.10;65.19
60918;BME280;46792;38.854;-9.384;2023-02-13T11:48:21;100562.88;;;14.18;64.55
60918;BME280;46792;38.854;-9.384;2023-02-13T11:50:40;100559.38;;;14.28;64.53
60918;BME280;46792;38.854;-9.384;2023-02-13T11:52:42;100558.94;;;14.41;64.22
60918;BME280;46792;38.854;-9.384;2023-02-13T11:54:44;100558.69;;;14.48;63.47
60918;BME280;46792;38.854;-9.384;2023-02-13T11:56:52;100554.13;;;14.59;62.49
60918;BME280;46792;38.854;-9.384;2023-02-13T11:59:02;100547.28;;;14.56;61.91
60918;BME280;46792;38.854;-9.384;2023-02-13T12:01:22;100548.91;;;14.47;62.17
60918;BME280;46792;38.854;-9.384;2023-02-13T12:03:27;100545.91;;;14.43;61.67
60918;BME280;46792;38.854;-9.384;2023-02-13T12:05:28;100546.66;;;14.34;61.82
60918;BME280;46792;38.854;-9.384;2023-02-13T12:07:30;100540.09;;;14.24;61.96
60918;BME280;46792;38.854;-9.384;2023-02-13T12:09:31;100539.59;;;14.33;62.15
60918;BME280;46792;38.854;-9.384;2023-02-13T12:11:44;100534.72;;;14.35;62.24
60918;BME280;46792;38.854;-9.384;2023-02-13T12:13:46;100538.25;;;14.35;62.51
60918;BME280;46792;38.854;-9.384;2023-02-13T12:15:52;100525.50;;;14.41;62.17
60918;BME280;46792;38.854;-9.384;2023-02-13T12:20:16;100538.66;;;14.70;63.08
60918;BME280;46792;38.854;-9.384;2023-02-13T12:22:39;100529.25;;;15.09;60.97
60918;BME280;46792;38.854;-9.384;2023-02-13T12:27:47;100523.28;;;15.53;58.97
60918;BME280;46792;38.854;-9.384;2023-02-13T12:45:36;100489.75;;;15.84;57.45